sensor_id;sensor_type;location;lat;lon;timestamp;P1;durP1;ratioP1;P2;durP2;ratioP2
32445;SDS011;18899;50.748;7.102;2023-05-29T00:02:08;12.07;;;3.97;;
32445;SDS011;18899;50.748;7.102;2023-05-29T00:04:33;10.52;;;4.18;;
32445;SDS011;18899;50.748;7.102;2023-05-29T00:06:59;8.23;;;3.40;;
32445;SDS011;18899;50.748;7.102;2023-05-29T00:09:24;9.02;;;3.53;;
32445;SDS011;18899;50.748;7.102;2023-05-29T00:11:50;8.18;;;3.45;;
32445;SDS011;18899;50.748;7.102;2023-05-29T00:14:20;9.75;;;3.63;;
32445;SDS011;18899;50.748;7.102;2023-05-29T00:16:47;13.10;;;4.00;;
32445;SDS011;18899;50.748;7.102;2023-05-29T00:19:14;8.23;;;3.38;;
32445;SDS011;18899;50.748;7.102;2023-05-29T00:21:41;9.82;;;3.78;;
32445;SDS011;18899;50.748;7.102;2023-05-29T00:24:07;11.95;;;4.13;;
32445;SDS011;18899;50.748;7.102;2023-05-29T00:26:33;14.20;;;3.83;;
32445;SDS011;18899;50.748;7.102;2023-05-29T00:28:59;9.85;;;3.50;;
32445;SDS011;18899;50.748;7.102;2023-05-29T00:31:24;9.02;;;3.55;;
32445;SDS011;18899;50.748;7.102;2023-05-29T00:33:50;6.35;;;3.00;;
32445;SDS011;18899;50.748;7.102;2023-05-29T00:36:16;9.15;;;3.47;;
32445;SDS011;18899;50.748;7.102;2023-05-29T00:38:41;9.57;;;3.67;;
32445;SDS011;18899;50.748;7.102;2023-05-29T00:41:07;6.85;;;3.10;;
32445;SDS011;18899;50.748;7.102;2023-05-29T00:43:37;12.23;;;3.42;;
32445;SDS011;18899;50.748;7.102;2023-05-29T00:46:03;10.02;;;3.25;;
32445;SDS011;18899;50.748;7.102;2023-05-29T00:48:29;10.68;;;3.83;;
32445;SDS011;18899;50.748;7.102;2023-05-29T00:50:54;10.45;;;3.60;;
32445;SDS011;18899;50.748;7.102;2023-05-29T00:53:21;9.52;;;4.10;;
32445;SDS011;18899;50.748;7.102;2023-05-29T00:55:47;9.75;;;4.18;;
32445;SDS011;18899;50.748;7.102;2023-05-29T00:58:13;13.43;;;3.92;;
32445;SDS011;18899;50.748;7.102;2023-05-29T01:00:39;16.13;;;3.78;;
32445;SDS011;18899;50.748;7.102;2023-05-29T01:03:05;7.70;;;3.53;;
32445;SDS011;18899;50.748;7.102;2023-05-29T01:05:33;8.45;;;3.60;;
32445;SDS011;18899;50.748;7.102;2023-05-29T01:07:59;8.52;;;3.95;;
32445;SDS011;18899;50.748;7.102;2023-05-29T01:10:25;8.25;;;3.70;;
32445;SDS011;18899;50.748;7.102;2023-05-29T01:12:57;6.57;;;3.67;;
32445;SDS011;18899;50.748;7.102;2023-05-29T01:15:51;12.27;;;4.20;;
32445;SDS011;18899;50.748;7.102;2023-05-29T01:24:25;9.63;;;3.63;;
32445;SDS011;18899;50.748;7.102;2023-05-29T01:27:05;8.68;;;4.15;;
32445;SDS011;18899;50.748;7.102;2023-05-29T01:29:35;9.48;;;3.63;;
32445;SDS011;18899;50.748;7.102;2023-05-29T01:32:04;11.73;;;4.13;;
32445;SDS011;18899;50.748;7.102;2023-05-29T01:34:30;6.93;;;3.45;;
32445;SDS011;18899;50.748;7.102;2023-05-29T01:36:56;9.15;;;3.95;;
32445;SDS011;18899;50.748;7.102;2023-05-29T01:39:22;10.35;;;4.20;;
32445;SDS011;18899;50.748;7.102;2023-05-29T01:41:49;12.23;;;4.53;;
32445;SDS011;18899;50.748;7.102;2023-05-29T01:44:16;11.57;;;3.88;;
32445;SDS011;18899;50.748;7.102;2023-05-29T01:46:42;8.82;;;3.80;;
32445;SDS011;18899;50.748;7.102;2023-05-29T01:49:10;12.02;;;4.40;;
32445;SDS011;18899;50.748;7.102;2023-05-29T01:51:37;12.15;;;4.05;;
32445;SDS011;18899;50.748;7.102;2023-05-29T01:54:05;8.73;;;4.15;;
32445;SDS011;18899;50.748;7.102;2023-05-29T01:56:33;12.18;;;3.88;;
32445;SDS011;18899;50.748;7.102;2023-05-29T01:59:00;9.45;;;3.70;;
32445;SDS011;18899;50.748;7.102;2023-05-29T02:01:27;10.70;;;3.67;;
32445;SDS011;18899;50.748;7.102;2023-05-29T02:03:53;10.73;;;4.40;;
32445;SDS011;18899;50.748;7.102;2023-05-29T02:06:19;7.47;;;4.28;;
32445;SDS011;18899;50.748;7.102;2023-05-29T02:08:45;14.93;;;4.43;;
32445;SDS011;18899;50.748;7.102;2023-05-29T02:11:11;7.75;;;3.80;;
32445;SDS011;18899;50.748;7.102;2023-05-29T02:13:36;8.30;;;3.85;;
32445;SDS011;18899;50.748;7.102;2023-05-29T02:16:02;11.85;;;4.28;;
32445;SDS011;18899;50.748;7.102;2023-05-29T02:18:28;19.42;;;4.07;;
32445;SDS011;18899;50.748;7.102;2023-05-29T02:20:53;11.88;;;4.03;;
32445;SDS011;18899;50.748;7.102;2023-05-29T02:23:19;8.63;;;3.90;;
32445;SDS011;18899;50.748;7.102;2023-05-29T02:25:45;10.20;;;3.78;;
32445;SDS011;18899;50.748;7.102;2023-05-29T02:28:11;9.60;;;3.92;;
32445;SDS011;18899;50.748;7.102;2023-05-29T02:30:36;8.55;;;3.88;;
32445;SDS011;18899;50.748;7.102;2023-05-29T02:33:02;9.30;;;3.83;;
32445;SDS011;18899;50.748;7.102;2023-05-29T02:35:28;7.60;;;3.85;;
32445;SDS011;18899;50.748;7.102;2023-05-29T02:37:53;7.45;;;3.70;;
32445;SDS011;18899;50.748;7.102;2023-05-29T02:40:19;8.93;;;3.50;;
32445;SDS011;18899;50.748;7.102;2023-05-29T02:42:45;8.73;;;4.15;;
32445;SDS011;18899;50.748;7.102;2023-05-29T02:45:11;7.00;;;4.00;;
32445;SDS011;18899;50.748;7.102;2023-05-29T02:47:37;12.07;;;3.95;;
32445;SDS011;18899;50.748;7.102;2023-05-29T02:50:03;7.53;;;3.25;;
32445;SDS011;18899;50.748;7.102;2023-05-29T02:52:29;8.18;;;3.72;;
32445;SDS011;18899;50.748;7.102;2023-05-29T02:54:56;7.60;;;3.65;;
32445;SDS011;18899;50.748;7.102;2023-05-29T02:57:23;9.10;;;3.90;;
32445;SDS011;18899;50.748;7.102;2023-05-29T02:59:49;11.30;;;4.00;;
32445;SDS011;18899;50.748;7.102;2023-05-29T03:02:16;10.05;;;3.85;;
32445;SDS011;18899;50.748;7.102;2023-05-29T03:04:42;15.27;;;3.97;;
32445;SDS011;18899;50.748;7.102;2023-05-29T03:07:07;13.23;;;4.13;;
32445;SDS011;18899;50.748;7.102;2023-05-29T03:09:34;9.90;;;3.55;;
32445;SDS011;18899;50.748;7.102;2023-05-29T03:12:00;8.10;;;3.67;;
32445;SDS011;18899;50.748;7.102;2023-05-29T03:14:28;10.60;;;4.10;;
32445;SDS011;18899;50.748;7.102;2023-05-29T03:16:54;8.68;;;3.97;;
32445;SDS011;18899;50.748;7.102;2023-05-29T03:19:20;7.65;;;3.65;;
32445;SDS011;18899;50.748;7.102;2023-05-29T03:21:45;7.63;;;3.65;;
32445;SDS011;18899;50.748;7.102;2023-05-29T03:24:11;9.40;;;3.30;;
32445;SDS011;18899;50.748;7.102;2023-05-29T03:26:40;6.70;;;3.30;;
32445;SDS011;18899;50.748;7.102;2023-05-29T03:29:06;9.98;;;3.83;;
32445;SDS011;18899;50.748;7.102;2023-05-29T03:31:32;6.90;;;3.15;;
32445;SDS011;18899;50.748;7.102;2023-05-29T03:33:59;7.03;;;3.75;;
32445;SDS011;18899;50.748;7.102;2023-05-29T03:36:25;8.18;;;3.55;;
32445;SDS011;18899;50.748;7.102;2023-05-29T03:38:51;9.70;;;3.45;;
32445;SDS011;18899;50.748;7.102;2023-05-29T03:41:17;13.05;;;3.53;;
32445;SDS011;18899;50.748;7.102;2023-05-29T03:43:42;11.30;;;3.88;;
32445;SDS011;18899;50.748;7.102;2023-05-29T03:46:08;9.30;;;3.58;;
32445;SDS011;18899;50.748;7.102;2023-05-29T03:48:33;8.93;;;3.45;;
32445;SDS011;18899;50.748;7.102;2023-05-29T03:50:59;7.32;;;3.80;;
32445;SDS011;18899;50.748;7.102;2023-05-29T03:53:25;8.10;;;3.88;;
32445;SDS011;18899;50.748;7.102;2023-05-29T03:55:50;9.65;;;3.30;;
32445;SDS011;18899;50.748;7.102;2023-05-29T03:58:16;9.13;;;3.83;;
32445;SDS011;18899;50.748;7.102;2023-05-29T04:00:41;6.40;;;3.00;;
32445;SDS011;18899;50.748;7.102;2023-05-29T04:03:07;9.93;;;3.60;;
32445;SDS011;18899;50.748;7.102;2023-05-29T04:05:33;10.95;;;3.85;;
32445;SDS011;18899;50.748;7.102;2023-05-29T04:07:59;9.25;;;3.95;;
32445;SDS011;18899;50.748;7.102;2023-05-29T04:10:25;9.85;;;3.85;;
32445;SDS011;18899;50.748;7.102;2023-05-29T04:12:51;8.43;;;3.65;;
32445;SDS011;18899;50.748;7.102;2023-05-29T04:15:17;10.23;;;3.95;;
32445;SDS011;18899;50.748;7.102;2023-05-29T04:17:42;6.15;;;3.42;;
32445;SDS011;18899;50.748;7.102;2023-05-29T04:20:08;13.77;;;4.10;;
32445;SDS011;18899;50.748;7.102;2023-05-29T04:22:37;7.95;;;3.80;;
32445;SDS011;18899;50.748;7.102;2023-05-29T04:25:03;15.23;;;3.63;;
32445;SDS011;18899;50.748;7.102;2023-05-29T04:27:30;11.65;;;3.63;;
32445;SDS011;18899;50.748;7.102;2023-05-29T04:29:57;10.73;;;4.00;;
32445;SDS011;18899;50.748;7.102;2023-05-29T04:32:23;9.60;;;3.28;;
32445;SDS011;18899;50.748;7.102;2023-05-29T04:34:48;7.20;;;3.25;;
32445;SDS011;18899;50.748;7.102;2023-05-29T04:37:14;11.55;;;3.60;;
32445;SDS011;18899;50.748;7.102;2023-05-29T04:39:40;10.15;;;3.20;;
32445;SDS011;18899;50.748;7.102;2023-05-29T04:42:05;7.47;;;3.30;;
32445;SDS011;18899;50.748;7.102;2023-05-29T04:44:31;13.73;;;3.55;;
32445;SDS011;18899;50.748;7.102;2023-05-29T04:46:58;9.57;;;3.85;;
32445;SDS011;18899;50.748;7.102;2023-05-29T04:49:23;10.88;;;4.22;;
32445;SDS011;18899;50.748;7.102;2023-05-29T04:51:49;10.55;;;3.38;;
32445;SDS011;18899;50.748;7.102;2023-05-29T04:54:17;10.23;;;3.75;;
32445;SDS011;18899;50.748;7.102;2023-05-29T04:56:44;12.63;;;3.97;;
32445;SDS011;18899;50.748;7.102;2023-05-29T04:59:11;11.90;;;3.70;;
32445;SDS011;18899;50.748;7.102;2023-05-29T05:01:37;9.98;;;3.92;;
32445;SDS011;18899;50.748;7.102;2023-05-29T05:04:02;7.68;;;3.35;;
32445;SDS011;18899;50.748;7.102;2023-05-29T05:06:28;8.50;;;3.58;;
32445;SDS011;18899;50.748;7.102;2023-05-29T05:08:54;10.50;;;3.65;;
32445;SDS011;18899;50.748;7.102;2023-05-29T05:11:21;9.60;;;3.58;;
32445;SDS011;18899;50.748;7.102;2023-05-29T05:13:47;9.85;;;4.10;;
32445;SDS011;18899;50.748;7.102;2023-05-29T05:16:13;9.98;;;4.05;;
32445;SDS011;18899;50.748;7.102;2023-05-29T05:18:38;12.55;;;3.58;;
32445;SDS011;18899;50.748;7.102;2023-05-29T05:21:04;6.47;;;3.33;;
32445;SDS011;18899;50.748;7.102;2023-05-29T05:23:31;13.65;;;3.90;;
32445;SDS011;18899;50.748;7.102;2023-05-29T05:25:57;11.75;;;3.67;;
32445;SDS011;18899;50.748;7.102;2023-05-29T05:28:22;10.43;;;3.42;;
32445;SDS011;18899;50.748;7.102;2023-05-29T05:30:48;6.32;;;3.28;;
32445;SDS011;18899;50.748;7.102;2023-05-29T05:33:14;9.93;;;3.35;;
32445;SDS011;18899;50.748;7.102;2023-05-29T05:35:39;11.23;;;4.07;;
32445;SDS011;18899;50.748;7.102;2023-05-29T05:38:05;11.80;;;4.30;;
32445;SDS011;18899;50.748;7.102;2023-05-29T05:40:31;9.40;;;3.63;;
32445;SDS011;18899;50.748;7.102;2023-05-29T05:42:57;16.10;;;4.15;;
32445;SDS011;18899;50.748;7.102;2023-05-29T05:45:22;12.00;;;4.22;;
32445;SDS011;18899;50.748;7.102;2023-05-29T05:47:48;11.85;;;3.67;;
32445;SDS011;18899;50.748;7.102;2023-05-29T05:50:14;13.52;;;4.40;;
32445;SDS011;18899;50.748;7.102;2023-05-29T05:52:40;15.10;;;4.50;;
32445;SDS011;18899;50.748;7.102;2023-05-29T05:55:05;12.45;;;4.13;;
32445;SDS011;18899;50.748;7.102;2023-05-29T05:57:32;17.13;;;4.47;;
32445;SDS011;18899;50.748;7.102;2023-05-29T05:59:58;10.75;;;4.05;;
32445;SDS011;18899;50.748;7.102;2023-05-29T06:02:25;13.73;;;4.00;;
32445;SDS011;18899;50.748;7.102;2023-05-29T06:04:51;12.30;;;4.50;;
32445;SDS011;18899;50.748;7.102;2023-05-29T06:07:16;15.32;;;4.35;;
32445;SDS011;18899;50.748;7.102;2023-05-29T06:09:42;13.40;;;4.20;;
32445;SDS011;18899;50.748;7.102;2023-05-29T06:12:08;7.15;;;3.47;;
32445;SDS011;18899;50.748;7.102;2023-05-29T06:14:34;14.00;;;3.67;;
32445;SDS011;18899;50.748;7.102;2023-05-29T06:17:00;11.95;;;3.50;;
32445;SDS011;18899;50.748;7.102;2023-05-29T06:19:26;14.05;;;4.07;;
32445;SDS011;18899;50.748;7.102;2023-05-29T06:21:51;14.68;;;4.45;;
32445;SDS011;18899;50.748;7.102;2023-05-29T06:24:17;14.68;;;4.05;;
32445;SDS011;18899;50.748;7.102;2023-05-29T06:26:43;13.82;;;3.95;;
32445;SDS011;18899;50.748;7.102;2023-05-29T06:29:08;16.30;;;3.65;;
32445;SDS011;18899;50.748;7.102;2023-05-29T06:31:34;8.52;;;3.60;;
32445;SDS011;18899;50.748;7.102;2023-05-29T06:33:59;11.80;;;4.00;;
32445;SDS011;18899;50.748;7.102;2023-05-29T06:36:25;12.48;;;4.43;;
32445;SDS011;18899;50.748;7.102;2023-05-29T06:38:50;14.45;;;4.38;;
32445;SDS011;18899;50.748;7.102;2023-05-29T06:41:16;9.10;;;3.78;;
32445;SDS011;18899;50.748;7.102;2023-05-29T06:43:42;12.65;;;3.85;;
32445;SDS011;18899;50.748;7.102;2023-05-29T06:46:08;11.07;;;3.60;;
32445;SDS011;18899;50.748;7.102;2023-05-29T06:48:35;13.07;;;3.58;;
32445;SDS011;18899;50.748;7.102;2023-05-29T06:51:01;12.65;;;3.30;;
32445;SDS011;18899;50.748;7.102;2023-05-29T06:53:34;10.32;;;3.80;;
32445;SDS011;18899;50.748;7.102;2023-05-29T06:56:02;10.30;;;3.88;;
32445;SDS011;18899;50.748;7.102;2023-05-29T06:58:29;11.40;;;3.95;;
32445;SDS011;18899;50.748;7.102;2023-05-29T07:00:55;12.40;;;4.20;;
32445;SDS011;18899;50.748;7.102;2023-05-29T07:03:20;13.55;;;4.78;;
32445;SDS011;18899;50.748;7.102;2023-05-29T07:05:46;12.35;;;4.03;;
32445;SDS011;18899;50.748;7.102;2023-05-29T07:08:12;15.57;;;4.13;;
32445;SDS011;18899;50.748;7.102;2023-05-29T07:10:37;10.30;;;4.45;;
32445;SDS011;18899;50.748;7.102;2023-05-29T07:13:03;10.68;;;4.15;;
32445;SDS011;18899;50.748;7.102;2023-05-29T07:15:29;14.40;;;3.65;;
32445;SDS011;18899;50.748;7.102;2023-05-29T07:17:55;12.90;;;3.67;;
32445;SDS011;18899;50.748;7.102;2023-05-29T07:20:20;8.65;;;3.75;;
32445;SDS011;18899;50.748;7.102;2023-05-29T07:22:46;8.88;;;3.88;;
32445;SDS011;18899;50.748;7.102;2023-05-29T07:25:11;12.57;;;3.97;;
32445;SDS011;18899;50.748;7.102;2023-05-29T07:27:37;13.25;;;3.90;;
32445;SDS011;18899;50.748;7.102;2023-05-29T07:30:03;13.30;;;4.60;;
32445;SDS011;18899;50.748;7.102;2023-05-29T07:32:30;12.70;;;4.57;;
32445;SDS011;18899;50.748;7.102;2023-05-29T07:34:56;17.95;;;4.20;;
32445;SDS011;18899;50.748;7.102;2023-05-29T07:37:21;12.00;;;4.13;;
32445;SDS011;18899;50.748;7.102;2023-05-29T07:39:47;15.75;;;3.92;;
32445;SDS011;18899;50.748;7.102;2023-05-29T07:42:12;9.93;;;3.65;;
32445;SDS011;18899;50.748;7.102;2023-05-29T07:44:38;9.18;;;3.70;;
32445;SDS011;18899;50.748;7.102;2023-05-29T07:47:04;9.63;;;3.55;;
32445;SDS011;18899;50.748;7.102;2023-05-29T07:49:30;12.02;;;3.85;;
32445;SDS011;18899;50.748;7.102;2023-05-29T07:51:55;9.88;;;4.00;;
32445;SDS011;18899;50.748;7.102;2023-05-29T07:54:21;13.07;;;4.03;;
32445;SDS011;18899;50.748;7.102;2023-05-29T07:56:47;9.02;;;3.78;;
32445;SDS011;18899;50.748;7.102;2023-05-29T07:59:12;10.07;;;4.10;;
32445;SDS011;18899;50.748;7.102;2023-05-29T08:01:38;13.30;;;3.97;;
32445;SDS011;18899;50.748;7.102;2023-05-29T08:04:08;9.10;;;3.70;;
32445;SDS011;18899;50.748;7.102;2023-05-29T08:06:34;13.35;;;4.05;;
32445;SDS011;18899;50.748;7.102;2023-05-29T08:08:59;13.32;;;4.40;;
32445;SDS011;18899;50.748;7.102;2023-05-29T08:11:25;7.72;;;3.28;;
32445;SDS011;18899;50.748;7.102;2023-05-29T08:13:51;10.13;;;4.03;;
32445;SDS011;18899;50.748;7.102;2023-05-29T08:16:16;13.48;;;4.72;;
32445;SDS011;18899;50.748;7.102;2023-05-29T08:18:42;15.25;;;4.45;;
32445;SDS011;18899;50.748;7.102;2023-05-29T08:21:08;8.93;;;3.70;;
32445;SDS011;18899;50.748;7.102;2023-05-29T08:23:36;12.75;;;4.35;;
32445;SDS011;18899;50.748;7.102;2023-05-29T08:26:02;13.07;;;4.05;;
32445;SDS011;18899;50.748;7.102;2023-05-29T08:28:28;13.32;;;3.83;;
32445;SDS011;18899;50.748;7.102;2023-05-29T08:30:54;12.95;;;4.05;;
32445;SDS011;18899;50.748;7.102;2023-05-29T08:33:19;12.27;;;3.88;;
32445;SDS011;18899;50.748;7.102;2023-05-29T08:35:45;10.88;;;3.65;;
32445;SDS011;18899;50.748;7.102;2023-05-29T08:38:10;13.43;;;3.92;;
32445;SDS011;18899;50.748;7.102;2023-05-29T08:40:36;12.27;;;3.85;;
32445;SDS011;18899;50.748;7.102;2023-05-29T08:45:55;11.02;;;3.75;;
32445;SDS011;18899;50.748;7.102;2023-05-29T08:48:26;10.68;;;3.85;;
32445;SDS011;18899;50.748;7.102;2023-05-29T08:50:54;13.73;;;3.22;;
32445;SDS011;18899;50.748;7.102;2023-05-29T08:53:21;13.73;;;4.18;;
32445;SDS011;18899;50.748;7.102;2023-05-29T08:55:48;11.52;;;3.55;;
32445;SDS011;18899;50.748;7.102;2023-05-29T08:58:18;14.75;;;4.20;;
32445;SDS011;18899;50.748;7.102;2023-05-29T09:00:46;9.00;;;2.80;;
32445;SDS011;18899;50.748;7.102;2023-05-29T09:03:12;14.63;;;3.42;;
32445;SDS011;18899;50.748;7.102;2023-05-29T09:05:38;10.68;;;3.50;;
32445;SDS011;18899;50.748;7.102;2023-05-29T09:08:05;16.45;;;3.67;;
32445;SDS011;18899;50.748;7.102;2023-05-29T09:10:32;12.98;;;3.60;;
32445;SDS011;18899;50.748;7.102;2023-05-29T09:12:58;9.30;;;3.13;;
32445;SDS011;18899;50.748;7.102;2023-05-29T09:15:24;11.60;;;3.78;;
32445;SDS011;18899;50.748;7.102;2023-05-29T09:17:50;9.13;;;3.13;;
32445;SDS011;18899;50.748;7.102;2023-05-29T09:20:17;10.73;;;3.28;;
32445;SDS011;18899;50.748;7.102;2023-05-29T09:22:56;11.90;;;3.33;;
32445;SDS011;18899;50.748;7.102;2023-05-29T09:25:23;17.60;;;4.28;;
32445;SDS011;18899;50.748;7.102;2023-05-29T09:27:53;12.48;;;3.40;;
32445;SDS011;18899;50.748;7.102;2023-05-29T09:30:43;12.52;;;3.97;;
32445;SDS011;18899;50.748;7.102;2023-05-29T09:33:13;13.85;;;3.30;;
32445;SDS011;18899;50.748;7.102;2023-05-29T09:35:41;9.43;;;3.27;;
32445;SDS011;18899;50.748;7.102;2023-05-29T09:38:08;10.23;;;3.15;;
32445;SDS011;18899;50.748;7.102;2023-05-29T09:40:37;14.27;;;3.67;;
32445;SDS011;18899;50.748;7.102;2023-05-29T09:43:14;13.50;;;3.42;;
32445;SDS011;18899;50.748;7.102;2023-05-29T09:45:43;11.52;;;3.35;;
32445;SDS011;18899;50.748;7.102;2023-05-29T09:48:14;14.05;;;3.50;;
32445;SDS011;18899;50.748;7.102;2023-05-29T09:50:40;11.57;;;3.80;;
32445;SDS011;18899;50.748;7.102;2023-05-29T09:53:19;12.52;;;3.72;;
32445;SDS011;18899;50.748;7.102;2023-05-29T09:55:47;10.07;;;3.03;;
32445;SDS011;18899;50.748;7.102;2023-05-29T09:58:14;12.85;;;3.38;;
32445;SDS011;18899;50.748;7.102;2023-05-29T10:00:41;19.42;;;3.17;;
32445;SDS011;18899;50.748;7.102;2023-05-29T10:03:07;12.32;;;3.63;;
32445;SDS011;18899;50.748;7.102;2023-05-29T10:05:33;9.43;;;2.83;;
32445;SDS011;18899;50.748;7.102;2023-05-29T10:08:00;12.43;;;3.67;;
32445;SDS011;18899;50.748;7.102;2023-05-29T10:10:27;11.60;;;3.22;;
32445;SDS011;18899;50.748;7.102;2023-05-29T10:12:53;13.70;;;3.42;;
32445;SDS011;18899;50.748;7.102;2023-05-29T10:15:20;9.35;;;2.88;;
32445;SDS011;18899;50.748;7.102;2023-05-29T10:17:59;11.65;;;2.78;;
32445;SDS011;18899;50.748;7.102;2023-05-29T10:20:31;11.65;;;3.40;;
32445;SDS011;18899;50.748;7.102;2023-05-29T10:23:00;14.18;;;3.17;;
32445;SDS011;18899;50.748;7.102;2023-05-29T10:25:27;14.30;;;3.30;;
32445;SDS011;18899;50.748;7.102;2023-05-29T10:27:56;11.40;;;3.63;;
32445;SDS011;18899;50.748;7.102;2023-05-29T10:30:30;11.15;;;3.70;;
32445;SDS011;18899;50.748;7.102;2023-05-29T10:33:24;12.73;;;3.75;;
32445;SDS011;18899;50.748;7.102;2023-05-29T10:38:49;11.10;;;3.22;;
32445;SDS011;18899;50.748;7.102;2023-05-29T10:43:56;12.60;;;3.53;;
32445;SDS011;18899;50.748;7.102;2023-05-29T10:47:00;14.32;;;3.25;;
32445;SDS011;18899;50.748;7.102;2023-05-29T10:49:21;11.27;;;3.08;;
32445;SDS011;18899;50.748;7.102;2023-05-29T10:51:47;14.18;;;3.75;;
32445;SDS011;18899;50.748;7.102;2023-05-29T10:54:13;8.73;;;2.75;;
32445;SDS011;18899;50.748;7.102;2023-05-29T10:56:39;9.00;;;3.15;;
32445;SDS011;18899;50.748;7.102;2023-05-29T10:59:06;8.65;;;3.13;;
32445;SDS011;18899;50.748;7.102;2023-05-29T11:01:33;13.25;;;3.20;;
32445;SDS011;18899;50.748;7.102;2023-05-29T11:06:42;17.33;;;3.55;;
32445;SDS011;18899;50.748;7.102;2023-05-29T11:15:05;11.00;;;3.10;;
32445;SDS011;18899;50.748;7.102;2023-05-29T11:17:32;12.50;;;3.25;;
32445;SDS011;18899;50.748;7.102;2023-05-29T11:20:05;14.52;;;3.67;;
32445;SDS011;18899;50.748;7.102;2023-05-29T11:25:15;8.63;;;3.17;;
32445;SDS011;18899;50.748;7.102;2023-05-29T11:27:42;12.93;;;2.58;;
32445;SDS011;18899;50.748;7.102;2023-05-29T11:30:09;16.70;;;3.17;;
32445;SDS011;18899;50.748;7.102;2023-05-29T11:32:36;14.02;;;3.08;;
32445;SDS011;18899;50.748;7.102;2023-05-29T11:35:04;14.60;;;2.92;;
32445;SDS011;18899;50.748;7.102;2023-05-29T11:37:34;8.45;;;2.67;;
32445;SDS011;18899;50.748;7.102;2023-05-29T11:40:02;10.27;;;3.13;;
32445;SDS011;18899;50.748;7.102;2023-05-29T11:42:30;9.07;;;2.67;;
32445;SDS011;18899;50.748;7.102;2023-05-29T11:45:09;11.02;;;3.03;;
32445;SDS011;18899;50.748;7.102;2023-05-29T11:47:51;10.00;;;2.85;;
32445;SDS011;18899;50.748;7.102;2023-05-29T11:50:27;14.38;;;2.95;;
32445;SDS011;18899;50.748;7.102;2023-05-29T11:52:55;12.87;;;3.37;;
32445;SDS011;18899;50.748;7.102;2023-05-29T11:55:22;10.27;;;2.90;;
32445;SDS011;18899;50.748;7.102;2023-05-29T11:57:49;8.05;;;2.40;;
32445;SDS011;18899;50.748;7.102;2023-05-29T12:00:15;10.85;;;3.22;;
32445;SDS011;18899;50.748;7.102;2023-05-29T12:02:42;12.07;;;2.95;;
32445;SDS011;18899;50.748;7.102;2023-05-29T12:05:08;8.32;;;2.78;;
32445;SDS011;18899;50.748;7.102;2023-05-29T12:07:38;13.48;;;3.33;;
32445;SDS011;18899;50.748;7.102;2023-05-29T12:12:36;10.32;;;3.05;;
32445;SDS011;18899;50.748;7.102;2023-05-29T12:15:01;10.63;;;2.92;;
32445;SDS011;18899;50.748;7.102;2023-05-29T12:17:30;7.60;;;3.05;;
32445;SDS011;18899;50.748;7.102;2023-05-29T12:19:56;14.57;;;3.00;;
32445;SDS011;18899;50.748;7.102;2023-05-29T12:22:34;11.07;;;3.25;;
32445;SDS011;18899;50.748;7.102;2023-05-29T12:25:11;9.00;;;2.97;;
32445;SDS011;18899;50.748;7.102;2023-05-29T12:27:44;11.15;;;3.05;;
32445;SDS011;18899;50.748;7.102;2023-05-29T12:30:14;12.10;;;2.85;;
32445;SDS011;18899;50.748;7.102;2023-05-29T12:32:46;9.63;;;2.97;;
32445;SDS011;18899;50.748;7.102;2023-05-29T12:37:45;10.15;;;3.10;;
32445;SDS011;18899;50.748;7.102;2023-05-29T12:42:47;8.95;;;3.00;;
32445;SDS011;18899;50.748;7.102;2023-05-29T12:45:14;10.13;;;3.13;;
32445;SDS011;18899;50.748;7.102;2023-05-29T12:48:01;9.35;;;2.90;;
32445;SDS011;18899;50.748;7.102;2023-05-29T12:50:28;7.38;;;2.38;;
32445;SDS011;18899;50.748;7.102;2023-05-29T12:55:29;10.45;;;3.20;;
32445;SDS011;18899;50.748;7.102;2023-05-29T12:58:06;9.57;;;2.63;;
32445;SDS011;18899;50.748;7.102;2023-05-29T13:00:37;9.82;;;3.20;;
32445;SDS011;18899;50.748;7.102;2023-05-29T13:03:04;13.55;;;3.33;;
32445;SDS011;18899;50.748;7.102;2023-05-29T13:05:31;10.75;;;3.10;;
32445;SDS011;18899;50.748;7.102;2023-05-29T13:07:56;13.15;;;3.60;;
32445;SDS011;18899;50.748;7.102;2023-05-29T13:10:22;10.48;;;2.85;;
32445;SDS011;18899;50.748;7.102;2023-05-29T13:12:49;14.13;;;3.13;;
32445;SDS011;18899;50.748;7.102;2023-05-29T13:15:19;8.38;;;2.58;;
32445;SDS011;18899;50.748;7.102;2023-05-29T13:17:45;11.52;;;3.97;;
32445;SDS011;18899;50.748;7.102;2023-05-29T13:20:11;8.57;;;3.08;;
32445;SDS011;18899;50.748;7.102;2023-05-29T13:22:41;10.10;;;2.92;;
32445;SDS011;18899;50.748;7.102;2023-05-29T13:25:08;11.15;;;2.85;;
32445;SDS011;18899;50.748;7.102;2023-05-29T13:27:38;9.93;;;3.20;;
32445;SDS011;18899;50.748;7.102;2023-05-29T13:30:06;10.07;;;3.00;;
32445;SDS011;18899;50.748;7.102;2023-05-29T13:32:32;13.82;;;2.75;;
32445;SDS011;18899;50.748;7.102;2023-05-29T13:34:58;9.07;;;2.70;;
32445;SDS011;18899;50.748;7.102;2023-05-29T13:37:24;9.50;;;2.85;;
32445;SDS011;18899;50.748;7.102;2023-05-29T13:39:50;11.45;;;3.22;;
32445;SDS011;18899;50.748;7.102;2023-05-29T13:42:16;13.27;;;3.28;;
32445;SDS011;18899;50.748;7.102;2023-05-29T13:44:42;7.20;;;2.50;;
32445;SDS011;18899;50.748;7.102;2023-05-29T13:47:08;6.63;;;2.47;;
32445;SDS011;18899;50.748;7.102;2023-05-29T13:49:34;14.05;;;3.00;;
32445;SDS011;18899;50.748;7.102;2023-05-29T13:52:00;10.95;;;2.88;;
32445;SDS011;18899;50.748;7.102;2023-05-29T13:54:25;12.25;;;3.38;;
32445;SDS011;18899;50.748;7.102;2023-05-29T13:56:54;11.63;;;3.03;;
32445;SDS011;18899;50.748;7.102;2023-05-29T13:59:21;14.05;;;3.28;;
32445;SDS011;18899;50.748;7.102;2023-05-29T14:01:46;7.28;;;2.30;;
32445;SDS011;18899;50.748;7.102;2023-05-29T14:04:12;7.60;;;2.67;;
32445;SDS011;18899;50.748;7.102;2023-05-29T14:06:38;11.20;;;2.88;;
32445;SDS011;18899;50.748;7.102;2023-05-29T14:09:03;8.77;;;2.83;;
32445;SDS011;18899;50.748;7.102;2023-05-29T14:11:29;11.25;;;3.08;;
32445;SDS011;18899;50.748;7.102;2023-05-29T14:13:55;14.30;;;2.80;;
32445;SDS011;18899;50.748;7.102;2023-05-29T14:16:20;10.20;;;2.83;;
32445;SDS011;18899;50.748;7.102;2023-05-29T14:18:46;11.02;;;2.75;;
32445;SDS011;18899;50.748;7.102;2023-05-29T14:21:13;16.98;;;3.30;;
32445;SDS011;18899;50.748;7.102;2023-05-29T14:23:39;16.35;;;3.17;;
32445;SDS011;18899;50.748;7.102;2023-05-29T14:26:04;8.57;;;2.40;;
32445;SDS011;18899;50.748;7.102;2023-05-29T14:28:30;10.45;;;2.72;;
32445;SDS011;18899;50.748;7.102;2023-05-29T14:30:56;13.80;;;3.65;;
32445;SDS011;18899;50.748;7.102;2023-05-29T14:33:21;8.85;;;2.60;;
32445;SDS011;18899;50.748;7.102;2023-05-29T14:35:47;10.70;;;2.75;;
32445;SDS011;18899;50.748;7.102;2023-05-29T14:38:12;9.45;;;2.47;;
32445;SDS011;18899;50.748;7.102;2023-05-29T14:40:38;10.77;;;2.60;;
32445;SDS011;18899;50.748;7.102;2023-05-29T14:43:03;9.70;;;2.97;;
32445;SDS011;18899;50.748;7.102;2023-05-29T14:45:29;8.45;;;2.20;;
32445;SDS011;18899;50.748;7.102;2023-05-29T14:47:55;9.68;;;2.63;;
32445;SDS011;18899;50.748;7.102;2023-05-29T14:50:20;6.30;;;2.50;;
32445;SDS011;18899;50.748;7.102;2023-05-29T14:52:46;9.52;;;2.70;;
32445;SDS011;18899;50.748;7.102;2023-05-29T14:55:12;9.65;;;2.92;;
32445;SDS011;18899;50.748;7.102;2023-05-29T14:57:40;8.07;;;2.42;;
32445;SDS011;18899;50.748;7.102;2023-05-29T15:00:06;7.80;;;2.78;;
32445;SDS011;18899;50.748;7.102;2023-05-29T15:02:32;8.75;;;2.65;;
32445;SDS011;18899;50.748;7.102;2023-05-29T15:04:58;6.95;;;2.60;;
32445;SDS011;18899;50.748;7.102;2023-05-29T15:07:24;11.57;;;3.10;;
32445;SDS011;18899;50.748;7.102;2023-05-29T15:09:50;9.27;;;3.03;;
32445;SDS011;18899;50.748;7.102;2023-05-29T15:12:16;16.30;;;2.92;;
32445;SDS011;18899;50.748;7.102;2023-05-29T15:14:41;11.98;;;3.30;;
32445;SDS011;18899;50.748;7.102;2023-05-29T15:17:07;7.45;;;2.55;;